sensor_id;sensor_type;location;lat;lon;timestamp;P1;durP1;ratioP1;P2;durP2;ratioP2
50821;SDS011;36794;51.212;6.980;2023-06-05T00:00:33;3.30;;;1.40;;
50821;SDS011;36794;51.212;6.980;2023-06-05T00:02:59;5.40;;;1.63;;
50821;SDS011;36794;51.212;6.980;2023-06-05T00:05:25;3.80;;;1.13;;
50821;SDS011;36794;51.212;6.980;2023-06-05T00:07:52;5.73;;;1.60;;
50821;SDS011;36794;51.212;6.980;2023-06-05T00:10:18;4.50;;;1.50;;
50821;SDS011;36794;51.212;6.980;2023-06-05T00:12:44;7.00;;;1.70;;
50821;SDS011;36794;51.212;6.980;2023-06-05T00:15:10;5.17;;;1.70;;
50821;SDS011;36794;51.212;6.980;2023-06-05T00:17:37;8.60;;;2.17;;
50821;SDS011;36794;51.212;6.980;2023-06-05T00:20:03;6.77;;;1.80;;
50821;SDS011;36794;51.212;6.980;2023-06-05T00:22:30;5.13;;;1.80;;
50821;SDS011;36794;51.212;6.980;2023-06-05T00:24:58;4.33;;;1.70;;
50821;SDS011;36794;51.212;6.980;2023-06-05T00:27:24;5.33;;;2.03;;
50821;SDS011;36794;51.212;6.980;2023-06-05T00:29:50;5.10;;;2.00;;
50821;SDS011;36794;51.212;6.980;2023-06-05T00:32:16;6.57;;;1.80;;
50821;SDS011;36794;51.212;6.980;2023-06-05T00:34:42;8.77;;;2.07;;
50821;SDS011;36794;51.212;6.980;2023-06-05T00:37:08;7.27;;;1.70;;
50821;SDS011;36794;51.212;6.980;2023-06-05T00:39:34;8.33;;;2.10;;
50821;SDS011;36794;51.212;6.980;2023-06-05T00:42:00;10.27;;;2.30;;
50821;SDS011;36794;51.212;6.980;2023-06-05T00:44:26;11.30;;;2.30;;
50821;SDS011;36794;51.212;6.980;2023-06-05T00:46:52;7.43;;;2.00;;
50821;SDS011;36794;51.212;6.980;2023-06-05T00:49:18;6.13;;;2.00;;
50821;SDS011;36794;51.212;6.980;2023-06-05T00:51:45;10.70;;;2.20;;
50821;SDS011;36794;51.212;6.980;2023-06-05T00:54:11;5.50;;;1.97;;
50821;SDS011;36794;51.212;6.980;2023-06-05T00:56:39;8.03;;;1.90;;
50821;SDS011;36794;51.212;6.980;2023-06-05T00:59:06;6.17;;;1.97;;
50821;SDS011;36794;51.212;6.980;2023-06-05T01:01:32;5.20;;;1.90;;
50821;SDS011;36794;51.212;6.980;2023-06-05T01:03:59;8.37;;;1.90;;
50821;SDS011;36794;51.212;6.980;2023-06-05T01:06:25;8.80;;;2.10;;
50821;SDS011;36794;51.212;6.980;2023-06-05T01:08:51;3.20;;;1.77;;
50821;SDS011;36794;51.212;6.980;2023-06-05T01:11:38;7.20;;;1.93;;
50821;SDS011;36794;51.212;6.980;2023-06-05T01:14:08;8.67;;;2.43;;
50821;SDS011;36794;51.212;6.980;2023-06-05T01:16:37;6.73;;;2.23;;
50821;SDS011;36794;51.212;6.980;2023-06-05T01:19:03;7.37;;;2.03;;
50821;SDS011;36794;51.212;6.980;2023-06-05T01:21:31;5.80;;;1.87;;
50821;SDS011;36794;51.212;6.980;2023-06-05T01:23:58;10.10;;;2.13;;
50821;SDS011;36794;51.212;6.980;2023-06-05T01:26:39;7.23;;;2.53;;
50821;SDS011;36794;51.212;6.980;2023-06-05T01:29:10;4.82;;;2.00;;
50821;SDS011;36794;51.212;6.980;2023-06-05T01:31:37;6.23;;;2.20;;
50821;SDS011;36794;51.212;6.980;2023-06-05T01:34:05;8.70;;;2.80;;
50821;SDS011;36794;51.212;6.980;2023-06-05T01:36:33;7.07;;;2.70;;
50821;SDS011;36794;51.212;6.980;2023-06-05T01:39:01;8.23;;;2.43;;
50821;SDS011;36794;51.212;6.980;2023-06-05T01:41:29;9.77;;;2.73;;
50821;SDS011;36794;51.212;6.980;2023-06-05T01:43:55;6.70;;;2.30;;
50821;SDS011;36794;51.212;6.980;2023-06-05T01:46:22;8.83;;;2.40;;
50821;SDS011;36794;51.212;6.980;2023-06-05T01:48:48;7.80;;;2.20;;
50821;SDS011;36794;51.212;6.980;2023-06-05T01:51:16;7.47;;;2.23;;
50821;SDS011;36794;51.212;6.980;2023-06-05T01:53:42;7.67;;;2.60;;
50821;SDS011;36794;51.212;6.980;2023-06-05T01:56:08;10.20;;;2.40;;
50821;SDS011;36794;51.212;6.980;2023-06-05T01:58:34;5.77;;;2.40;;
50821;SDS011;36794;51.212;6.980;2023-06-05T02:01:01;6.37;;;2.00;;
50821;SDS011;36794;51.212;6.980;2023-06-05T02:03:28;8.63;;;3.03;;
50821;SDS011;36794;51.212;6.980;2023-06-05T02:05:54;4.63;;;2.10;;
50821;SDS011;36794;51.212;6.980;2023-06-05T02:08:20;5.47;;;2.10;;
50821;SDS011;36794;51.212;6.980;2023-06-05T02:10:48;7.60;;;2.47;;
50821;SDS011;36794;51.212;6.980;2023-06-05T02:13:14;5.93;;;2.27;;
50821;SDS011;36794;51.212;6.980;2023-06-05T02:15:40;4.13;;;2.30;;
50821;SDS011;36794;51.212;6.980;2023-06-05T02:18:06;8.23;;;2.67;;
50821;SDS011;36794;51.212;6.980;2023-06-05T02:20:32;5.87;;;2.40;;
50821;SDS011;36794;51.212;6.980;2023-06-05T02:22:59;7.97;;;2.70;;
50821;SDS011;36794;51.212;6.980;2023-06-05T02:25:25;7.53;;;2.67;;
50821;SDS011;36794;51.212;6.980;2023-06-05T02:27:52;5.47;;;2.23;;
50821;SDS011;36794;51.212;6.980;2023-06-05T02:30:18;5.50;;;2.57;;
50821;SDS011;36794;51.212;6.980;2023-06-05T02:32:45;5.33;;;2.67;;
50821;SDS011;36794;51.212;6.980;2023-06-05T02:35:11;6.07;;;2.43;;
50821;SDS011;36794;51.212;6.980;2023-06-05T02:37:37;8.93;;;2.70;;
50821;SDS011;36794;51.212;6.980;2023-06-05T02:40:08;8.20;;;2.77;;
50821;SDS011;36794;51.212;6.980;2023-06-05T02:42:34;8.93;;;3.03;;
50821;SDS011;36794;51.212;6.980;2023-06-05T02:45:00;6.23;;;2.83;;
50821;SDS011;36794;51.212;6.980;2023-06-05T02:47:26;8.10;;;3.20;;
50821;SDS011;36794;51.212;6.980;2023-06-05T02:49:52;6.77;;;3.00;;
50821;SDS011;36794;51.212;6.980;2023-06-05T02:52:18;7.10;;;2.93;;
50821;SDS011;36794;51.212;6.980;2023-06-05T02:54:45;6.27;;;2.80;;
50821;SDS011;36794;51.212;6.980;2023-06-05T02:57:11;8.67;;;3.27;;
50821;SDS011;36794;51.212;6.980;2023-06-05T02:59:37;9.47;;;3.10;;
50821;SDS011;36794;51.212;6.980;2023-06-05T03:02:04;8.03;;;3.27;;
50821;SDS011;36794;51.212;6.980;2023-06-05T03:04:31;7.93;;;3.40;;
50821;SDS011;36794;51.212;6.980;2023-06-05T03:06:57;5.73;;;2.80;;
50821;SDS011;36794;51.212;6.980;2023-06-05T03:09:24;8.37;;;3.00;;
50821;SDS011;36794;51.212;6.980;2023-06-05T03:11:50;6.27;;;2.73;;
50821;SDS011;36794;51.212;6.980;2023-06-05T03:14:17;7.47;;;2.90;;
50821;SDS011;36794;51.212;6.980;2023-06-05T03:16:43;5.27;;;2.67;;
50821;SDS011;36794;51.212;6.980;2023-06-05T03:19:10;6.93;;;3.00;;
50821;SDS011;36794;51.212;6.980;2023-06-05T03:21:37;8.00;;;2.83;;
50821;SDS011;36794;51.212;6.980;2023-06-05T03:24:08;8.43;;;3.30;;
50821;SDS011;36794;51.212;6.980;2023-06-05T03:26:35;7.77;;;2.70;;
50821;SDS011;36794;51.212;6.980;2023-06-05T03:29:01;10.33;;;3.20;;
50821;SDS011;36794;51.212;6.980;2023-06-05T03:31:27;8.97;;;3.00;;
50821;SDS011;36794;51.212;6.980;2023-06-05T03:33:53;7.70;;;2.77;;
50821;SDS011;36794;51.212;6.980;2023-06-05T03:36:19;9.37;;;3.10;;
50821;SDS011;36794;51.212;6.980;2023-06-05T03:38:46;7.67;;;3.20;;
50821;SDS011;36794;51.212;6.980;2023-06-05T03:41:12;9.73;;;2.83;;
50821;SDS011;36794;51.212;6.980;2023-06-05T03:43:38;8.77;;;2.97;;
50821;SDS011;36794;51.212;6.980;2023-06-05T03:46:04;8.00;;;3.30;;
50821;SDS011;36794;51.212;6.980;2023-06-05T03:48:30;6.17;;;2.77;;
50821;SDS011;36794;51.212;6.980;2023-06-05T03:50:56;7.20;;;3.00;;
50821;SDS011;36794;51.212;6.980;2023-06-05T03:53:22;8.60;;;3.23;;
50821;SDS011;36794;51.212;6.980;2023-06-05T03:55:49;6.23;;;3.10;;
50821;SDS011;36794;51.212;6.980;2023-06-05T03:58:17;6.47;;;2.80;;
50821;SDS011;36794;51.212;6.980;2023-06-05T04:00:44;8.27;;;3.37;;
50821;SDS011;36794;51.212;6.980;2023-06-05T04:03:11;9.63;;;3.27;;
50821;SDS011;36794;51.212;6.980;2023-06-05T04:05:37;8.53;;;2.87;;
50821;SDS011;36794;51.212;6.980;2023-06-05T04:08:04;7.33;;;3.47;;
50821;SDS011;36794;51.212;6.980;2023-06-05T04:10:30;7.07;;;3.33;;
50821;SDS011;36794;51.212;6.980;2023-06-05T04:12:56;13.23;;;3.70;;
50821;SDS011;36794;51.212;6.980;2023-06-05T04:15:25;6.93;;;3.73;;
50821;SDS011;36794;51.212;6.980;2023-06-05T04:17:51;6.93;;;3.20;;
50821;SDS011;36794;51.212;6.980;2023-06-05T04:20:17;9.17;;;3.37;;
50821;SDS011;36794;51.212;6.980;2023-06-05T04:22:44;9.50;;;3.50;;
50821;SDS011;36794;51.212;6.980;2023-06-05T04:25:13;6.33;;;3.50;;
50821;SDS011;36794;51.212;6.980;2023-06-05T04:27:39;9.53;;;2.97;;
50821;SDS011;36794;51.212;6.980;2023-06-05T04:30:06;7.30;;;3.20;;
50821;SDS011;36794;51.212;6.980;2023-06-05T04:32:33;5.87;;;3.40;;
50821;SDS011;36794;51.212;6.980;2023-06-05T04:34:59;6.87;;;3.03;;
50821;SDS011;36794;51.212;6.980;2023-06-05T04:37:26;10.07;;;3.33;;
50821;SDS011;36794;51.212;6.980;2023-06-05T04:39:52;7.00;;;3.53;;
50821;SDS011;36794;51.212;6.980;2023-06-05T04:42:18;11.13;;;3.43;;
50821;SDS011;36794;51.212;6.980;2023-06-05T04:44:45;8.47;;;3.83;;
50821;SDS011;36794;51.212;6.980;2023-06-05T04:47:13;10.33;;;3.60;;
50821;SDS011;36794;51.212;6.980;2023-06-05T04:49:38;10.23;;;3.60;;
50821;SDS011;36794;51.212;6.980;2023-06-05T04:52:04;7.90;;;3.70;;
50821;SDS011;36794;51.212;6.980;2023-06-05T04:54:31;7.53;;;3.90;;
50821;SDS011;36794;51.212;6.980;2023-06-05T04:56:57;6.40;;;3.53;;
50821;SDS011;36794;51.212;6.980;2023-06-05T04:59:23;11.33;;;3.53;;
50821;SDS011;36794;51.212;6.980;2023-06-05T05:01:49;9.43;;;3.40;;
50821;SDS011;36794;51.212;6.980;2023-06-05T05:04:15;9.57;;;3.50;;
50821;SDS011;36794;51.212;6.980;2023-06-05T05:06:41;9.47;;;3.60;;
50821;SDS011;36794;51.212;6.980;2023-06-05T05:09:12;9.40;;;3.60;;
50821;SDS011;36794;51.212;6.980;2023-06-05T05:11:38;7.50;;;3.20;;
50821;SDS011;36794;51.212;6.980;2023-06-05T05:14:04;12.87;;;3.63;;
50821;SDS011;36794;51.212;6.980;2023-06-05T05:16:30;16.90;;;4.10;;
50821;SDS011;36794;51.212;6.980;2023-06-05T05:18:56;19.13;;;3.70;;
50821;SDS011;36794;51.212;6.980;2023-06-05T05:21:22;9.97;;;3.97;;
50821;SDS011;36794;51.212;6.980;2023-06-05T05:23:48;14.00;;;4.10;;
50821;SDS011;36794;51.212;6.980;2023-06-05T05:26:14;9.17;;;3.50;;
50821;SDS011;36794;51.212;6.980;2023-06-05T05:28:40;16.50;;;4.37;;
50821;SDS011;36794;51.212;6.980;2023-06-05T05:31:06;15.10;;;3.37;;
50821;SDS011;36794;51.212;6.980;2023-06-05T05:33:32;8.60;;;3.97;;
50821;SDS011;36794;51.212;6.980;2023-06-05T05:35:58;16.60;;;4.47;;
50821;SDS011;36794;51.212;6.980;2023-06-05T05:38:24;14.73;;;4.30;;
50821;SDS011;36794;51.212;6.980;2023-06-05T05:40:49;13.93;;;3.90;;
50821;SDS011;36794;51.212;6.980;2023-06-05T05:43:16;11.67;;;3.87;;
50821;SDS011;36794;51.212;6.980;2023-06-05T05:45:42;12.00;;;3.70;;
50821;SDS011;36794;51.212;6.980;2023-06-05T05:48:08;16.10;;;4.40;;
50821;SDS011;36794;51.212;6.980;2023-06-05T05:50:35;13.73;;;5.20;;
50821;SDS011;36794;51.212;6.980;2023-06-05T05:53:01;14.43;;;4.57;;
50821;SDS011;36794;51.212;6.980;2023-06-05T05:55:28;15.20;;;4.13;;
50821;SDS011;36794;51.212;6.980;2023-06-05T05:57:54;15.93;;;3.90;;
50821;SDS011;36794;51.212;6.980;2023-06-05T06:00:20;15.37;;;3.93;;
50821;SDS011;36794;51.212;6.980;2023-06-05T06:02:46;15.27;;;4.13;;
50821;SDS011;36794;51.212;6.980;2023-06-05T06:05:12;19.17;;;3.83;;
50821;SDS011;36794;51.212;6.980;2023-06-05T06:07:38;11.10;;;4.00;;
50821;SDS011;36794;51.212;6.980;2023-06-05T06:10:06;12.50;;;4.03;;
50821;SDS011;36794;51.212;6.980;2023-06-05T06:12:33;11.53;;;3.60;;
50821;SDS011;36794;51.212;6.980;2023-06-05T06:14:59;11.53;;;4.03;;
50821;SDS011;36794;51.212;6.980;2023-06-05T06:17:25;17.87;;;4.37;;
50821;SDS011;36794;51.212;6.980;2023-06-05T06:19:52;15.07;;;3.93;;
50821;SDS011;36794;51.212;6.980;2023-06-05T06:22:18;10.77;;;3.37;;
50821;SDS011;36794;51.212;6.980;2023-06-05T06:24:44;22.27;;;3.60;;
50821;SDS011;36794;51.212;6.980;2023-06-05T06:27:10;15.63;;;3.40;;
50821;SDS011;36794;51.212;6.980;2023-06-05T06:29:45;9.13;;;2.93;;
50821;SDS011;36794;51.212;6.980;2023-06-05T06:32:12;12.90;;;3.97;;
50821;SDS011;36794;51.212;6.980;2023-06-05T06:34:38;12.80;;;3.50;;
50821;SDS011;36794;51.212;6.980;2023-06-05T06:37:04;11.47;;;3.40;;
50821;SDS011;36794;51.212;6.980;2023-06-05T06:39:30;11.47;;;3.40;;
50821;SDS011;36794;51.212;6.980;2023-06-05T06:41:56;12.43;;;3.40;;
50821;SDS011;36794;51.212;6.980;2023-06-05T06:44:22;7.40;;;2.57;;
50821;SDS011;36794;51.212;6.980;2023-06-05T06:46:48;9.73;;;2.80;;
50821;SDS011;36794;51.212;6.980;2023-06-05T06:49:14;8.43;;;3.37;;
50821;SDS011;36794;51.212;6.980;2023-06-05T06:51:41;13.27;;;2.83;;
50821;SDS011;36794;51.212;6.980;2023-06-05T06:54:06;12.03;;;2.73;;
50821;SDS011;36794;51.212;6.980;2023-06-05T06:56:32;12.47;;;2.73;;
50821;SDS011;36794;51.212;6.980;2023-06-05T06:58:58;11.77;;;2.73;;
50821;SDS011;36794;51.212;6.980;2023-06-05T07:01:24;10.05;;;2.20;;
50821;SDS011;36794;51.212;6.980;2023-06-05T07:03:51;12.40;;;3.17;;
50821;SDS011;36794;51.212;6.980;2023-06-05T07:06:17;11.05;;;2.40;;
50821;SDS011;36794;51.212;6.980;2023-06-05T07:08:46;12.38;;;2.83;;
50821;SDS011;36794;51.212;6.980;2023-06-05T07:11:12;11.48;;;2.97;;
50821;SDS011;36794;51.212;6.980;2023-06-05T07:13:38;9.85;;;2.38;;
50821;SDS011;36794;51.212;6.980;2023-06-05T07:16:04;8.50;;;2.45;;
50821;SDS011;36794;51.212;6.980;2023-06-05T07:18:30;9.38;;;3.05;;
50821;SDS011;36794;51.212;6.980;2023-06-05T07:20:56;9.43;;;2.53;;
50821;SDS011;36794;51.212;6.980;2023-06-05T07:23:22;9.75;;;2.38;;
50821;SDS011;36794;51.212;6.980;2023-06-05T07:25:48;8.52;;;2.17;;
50821;SDS011;36794;51.212;6.980;2023-06-05T07:28:16;11.52;;;2.25;;
50821;SDS011;36794;51.212;6.980;2023-06-05T07:30:42;3.70;;;1.73;;
50821;SDS011;36794;51.212;6.980;2023-06-05T07:33:08;9.65;;;2.15;;
50821;SDS011;36794;51.212;6.980;2023-06-05T07:35:34;8.27;;;2.47;;
50821;SDS011;36794;51.212;6.980;2023-06-05T07:38:00;6.35;;;2.15;;
50821;SDS011;36794;51.212;6.980;2023-06-05T07:40:26;7.00;;;1.98;;
50821;SDS011;36794;51.212;6.980;2023-06-05T07:42:52;7.15;;;1.80;;
50821;SDS011;36794;51.212;6.980;2023-06-05T07:45:18;5.75;;;1.80;;
50821;SDS011;36794;51.212;6.980;2023-06-05T07:47:44;7.95;;;1.73;;
50821;SDS011;36794;51.212;6.980;2023-06-05T07:50:10;7.35;;;1.83;;
50821;SDS011;36794;51.212;6.980;2023-06-05T07:52:36;8.20;;;1.92;;
50821;SDS011;36794;51.212;6.980;2023-06-05T07:55:02;9.75;;;1.67;;
50821;SDS011;36794;51.212;6.980;2023-06-05T07:57:29;6.38;;;1.63;;
50821;SDS011;36794;51.212;6.980;2023-06-05T07:59:55;6.22;;;1.88;;
50821;SDS011;36794;51.212;6.980;2023-06-05T08:02:21;7.57;;;2.00;;
50821;SDS011;36794;51.212;6.980;2023-06-05T08:04:48;5.60;;;1.92;;
50821;SDS011;36794;51.212;6.980;2023-06-05T08:07:14;6.20;;;2.00;;
50821;SDS011;36794;51.212;6.980;2023-06-05T08:09:40;10.80;;;2.15;;
50821;SDS011;36794;51.212;6.980;2023-06-05T08:12:06;6.80;;;1.83;;
50821;SDS011;36794;51.212;6.980;2023-06-05T08:14:33;7.78;;;1.48;;
50821;SDS011;36794;51.212;6.980;2023-06-05T08:17:00;5.43;;;1.77;;
50821;SDS011;36794;51.212;6.980;2023-06-05T08:19:26;13.82;;;1.98;;
50821;SDS011;36794;51.212;6.980;2023-06-05T08:21:52;10.00;;;1.98;;
50821;SDS011;36794;51.212;6.980;2023-06-05T08:24:22;6.53;;;1.65;;
50821;SDS011;36794;51.212;6.980;2023-06-05T08:26:48;5.30;;;1.58;;
50821;SDS011;36794;51.212;6.980;2023-06-05T08:29:14;10.10;;;1.85;;
50821;SDS011;36794;51.212;6.980;2023-06-05T08:31:40;4.03;;;1.73;;
50821;SDS011;36794;51.212;6.980;2023-06-05T08:34:06;6.22;;;2.35;;
50821;SDS011;36794;51.212;6.980;2023-06-05T08:36:32;12.85;;;1.90;;
50821;SDS011;36794;51.212;6.980;2023-06-05T08:38:59;11.25;;;2.17;;
50821;SDS011;36794;51.212;6.980;2023-06-05T08:41:25;11.82;;;2.58;;
50821;SDS011;36794;51.212;6.980;2023-06-05T08:43:51;9.07;;;1.80;;
50821;SDS011;36794;51.212;6.980;2023-06-05T08:46:17;5.45;;;2.00;;
50821;SDS011;36794;51.212;6.980;2023-06-05T08:48:44;4.82;;;1.90;;
50821;SDS011;36794;51.212;6.980;2023-06-05T08:51:11;5.65;;;1.50;;
50821;SDS011;36794;51.212;6.980;2023-06-05T08:53:38;7.68;;;2.03;;
50821;SDS011;36794;51.212;6.980;2023-06-05T08:56:05;4.97;;;1.52;;
50821;SDS011;36794;51.212;6.980;2023-06-05T08:58:31;6.85;;;1.92;;
50821;SDS011;36794;51.212;6.980;2023-06-05T09:00:58;3.50;;;1.50;;
50821;SDS011;36794;51.212;6.980;2023-06-05T09:03:24;4.55;;;1.70;;
50821;SDS011;36794;51.212;6.980;2023-06-05T09:05:51;3.60;;;1.60;;
50821;SDS011;36794;51.212;6.980;2023-06-05T09:08:17;7.60;;;1.90;;
50821;SDS011;36794;51.212;6.980;2023-06-05T09:10:44;6.18;;;1.70;;
50821;SDS011;36794;51.212;6.980;2023-06-05T09:13:10;5.35;;;1.50;;
50821;SDS011;36794;51.212;6.980;2023-06-05T09:15:36;7.30;;;1.80;;
50821;SDS011;36794;51.212;6.980;2023-06-05T09:18:07;6.70;;;1.65;;
50821;SDS011;36794;51.212;6.980;2023-06-05T09:20:34;3.83;;;1.60;;
50821;SDS011;36794;51.212;6.980;2023-06-05T09:23:00;5.85;;;1.73;;
50821;SDS011;36794;51.212;6.980;2023-06-05T09:25:34;3.03;;;1.60;;
50821;SDS011;36794;51.212;6.980;2023-06-05T09:28:09;4.68;;;1.95;;
50821;SDS011;36794;51.212;6.980;2023-06-05T09:30:52;7.68;;;1.95;;
50821;SDS011;36794;51.212;6.980;2023-06-05T09:33:19;8.88;;;1.90;;
50821;SDS011;36794;51.212;6.980;2023-06-05T09:35:45;5.15;;;2.15;;
50821;SDS011;36794;51.212;6.980;2023-06-05T09:38:26;4.85;;;1.98;;
50821;SDS011;36794;51.212;6.980;2023-06-05T09:40:52;7.40;;;1.92;;
50821;SDS011;36794;51.212;6.980;2023-06-05T09:43:22;6.53;;;2.20;;
50821;SDS011;36794;51.212;6.980;2023-06-05T09:45:47;5.00;;;2.10;;
50821;SDS011;36794;51.212;6.980;2023-06-05T09:48:14;5.18;;;2.03;;
50821;SDS011;36794;51.212;6.980;2023-06-05T09:50:40;6.05;;;2.55;;
50821;SDS011;36794;51.212;6.980;2023-06-05T09:53:07;3.05;;;1.75;;
50821;SDS011;36794;51.212;6.980;2023-06-05T09:55:35;3.33;;;1.67;;
50821;SDS011;36794;51.212;6.980;2023-06-05T09:58:02;4.38;;;1.63;;
50821;SDS011;36794;51.212;6.980;2023-06-05T10:00:37;4.47;;;1.80;;
50821;SDS011;36794;51.212;6.980;2023-06-05T10:03:17;7.10;;;1.98;;
50821;SDS011;36794;51.212;6.980;2023-06-05T10:05:43;9.07;;;1.85;;
50821;SDS011;36794;51.212;6.980;2023-06-05T10:08:11;8.88;;;1.88;;
50821;SDS011;36794;51.212;6.980;2023-06-05T10:10:38;6.28;;;1.90;;
50821;SDS011;36794;51.212;6.980;2023-06-05T10:13:04;5.30;;;1.75;;
50821;SDS011;36794;51.212;6.980;2023-06-05T10:15:31;4.38;;;1.60;;
50821;SDS011;36794;51.212;6.980;2023-06-05T10:17:57;5.85;;;2.10;;
50821;SDS011;36794;51.212;6.980;2023-06-05T10:20:24;4.72;;;2.10;;
50821;SDS011;36794;51.212;6.980;2023-06-05T10:22:49;5.55;;;2.05;;
50821;SDS011;36794;51.212;6.980;2023-06-05T10:25:16;6.30;;;1.92;;
50821;SDS011;36794;51.212;6.980;2023-06-05T10:27:50;12.38;;;1.90;;
50821;SDS011;36794;51.212;6.980;2023-06-05T10:35:55;7.80;;;1.80;;
50821;SDS011;36794;51.212;6.980;2023-06-05T10:38:25;4.72;;;1.88;;
50821;SDS011;36794;51.212;6.980;2023-06-05T10:40:55;6.13;;;1.60;;
50821;SDS011;36794;51.212;6.980;2023-06-05T10:43:29;4.30;;;1.88;;
50821;SDS011;36794;51.212;6.980;2023-06-05T10:45:56;3.42;;;1.70;;
50821;SDS011;36794;51.212;6.980;2023-06-05T10:49:02;5.55;;;1.77;;
50821;SDS011;36794;51.212;6.980;2023-06-05T10:53:52;4.47;;;1.52;;
50821;SDS011;36794;51.212;6.980;2023-06-05T10:59:12;3.83;;;1.48;;
50821;SDS011;36794;51.212;6.980;2023-06-05T11:01:39;4.53;;;1.20;;
50821;SDS011;36794;51.212;6.980;2023-06-05T11:04:06;3.60;;;1.73;;
50821;SDS011;36794;51.212;6.980;2023-06-05T11:06:32;5.00;;;1.50;;
50821;SDS011;36794;51.212;6.980;2023-06-05T11:09:11;5.50;;;1.50;;
50821;SDS011;36794;51.212;6.980;2023-06-05T11:11:56;4.35;;;1.60;;
50821;SDS011;36794;51.212;6.980;2023-06-05T11:14:23;5.05;;;1.90;;
50821;SDS011;36794;51.212;6.980;2023-06-05T11:16:49;3.50;;;1.50;;
50821;SDS011;36794;51.212;6.980;2023-06-05T11:24:26;2.70;;;1.30;;
50821;SDS011;36794;51.212;6.980;2023-06-05T11:26:52;5.68;;;1.50;;
50821;SDS011;36794;51.212;6.980;2023-06-05T11:29:18;3.78;;;1.63;;
50821;SDS011;36794;51.212;6.980;2023-06-05T11:31:44;2.92;;;1.50;;
50821;SDS011;36794;51.212;6.980;2023-06-05T11:34:11;6.80;;;1.35;;
50821;SDS011;36794;51.212;6.980;2023-06-05T11:36:38;5.75;;;1.48;;
50821;SDS011;36794;51.212;6.980;2023-06-05T11:39:04;6.13;;;1.70;;
50821;SDS011;36794;51.212;6.980;2023-06-05T11:41:30;4.75;;;1.88;;
50821;SDS011;36794;51.212;6.980;2023-06-05T11:43:56;5.32;;;1.45;;
50821;SDS011;36794;51.212;6.980;2023-06-05T11:49:03;3.47;;;1.45;;
50821;SDS011;36794;51.212;6.980;2023-06-05T11:51:35;3.22;;;1.88;;
50821;SDS011;36794;51.212;6.980;2023-06-05T11:54:02;7.75;;;1.80;;
50821;SDS011;36794;51.212;6.980;2023-06-05T11:56:29;3.00;;;1.52;;
50821;SDS011;36794;51.212;6.980;2023-06-05T11:58:56;9.00;;;1.70;;
50821;SDS011;36794;51.212;6.980;2023-06-05T12:01:22;5.13;;;1.73;;
50821;SDS011;36794;51.212;6.980;2023-06-05T12:04:03;5.10;;;1.80;;
50821;SDS011;36794;51.212;6.980;2023-06-05T12:06:29;5.45;;;1.58;;
50821;SDS011;36794;51.212;6.980;2023-06-05T12:09:08;2.78;;;1.60;;
50821;SDS011;36794;51.212;6.980;2023-06-05T12:11:35;3.10;;;1.52;;
50821;SDS011;36794;51.212;6.980;2023-06-05T12:14:02;5.68;;;1.65;;
50821;SDS011;36794;51.212;6.980;2023-06-05T12:16:50;3.47;;;1.75;;
50821;SDS011;36794;51.212;6.980;2023-06-05T12:19:17;6.03;;;1.73;;
50821;SDS011;36794;51.212;6.980;2023-06-05T12:21:44;4.82;;;1.42;;
50821;SDS011;36794;51.212;6.980;2023-06-05T12:24:11;5.70;;;1.90;;
50821;SDS011;36794;51.212;6.980;2023-06-05T12:26:50;5.40;;;1.60;;
50821;SDS011;36794;51.212;6.980;2023-06-05T12:29:23;6.07;;;1.73;;
50821;SDS011;36794;51.212;6.980;2023-06-05T12:31:51;4.55;;;1.77;;
50821;SDS011;36794;51.212;6.980;2023-06-05T12:34:17;4.47;;;1.80;;
50821;SDS011;36794;51.212;6.980;2023-06-05T12:36:43;3.38;;;1.83;;
50821;SDS011;36794;51.212;6.980;2023-06-05T12:39:10;9.98;;;2.35;;
50821;SDS011;36794;51.212;6.980;2023-06-05T12:41:37;5.75;;;1.90;;
50821;SDS011;36794;51.212;6.980;2023-06-05T12:44:05;4.88;;;1.70;;
50821;SDS011;36794;51.212;6.980;2023-06-05T12:46:33;3.97;;;1.70;;
50821;SDS011;36794;51.212;6.980;2023-06-05T12:48:59;3.38;;;1.83;;
50821;SDS011;36794;51.212;6.980;2023-06-05T12:51:26;4.60;;;1.80;;
50821;SDS011;36794;51.212;6.980;2023-06-05T12:53:53;6.00;;;1.95;;
50821;SDS011;36794;51.212;6.980;2023-06-05T12:56:19;9.57;;;2.00;;
50821;SDS011;36794;51.212;6.980;2023-06-05T12:58:49;4.13;;;1.88;;
50821;SDS011;36794;51.212;6.980;2023-06-05T13:01:15;2.63;;;1.70;;
50821;SDS011;36794;51.212;6.980;2023-06-05T13:03:41;4.90;;;2.03;;
50821;SDS011;36794;51.212;6.980;2023-06-05T13:06:08;5.63;;;2.00;;
50821;SDS011;36794;51.212;6.980;2023-06-05T13:08:34;7.60;;;1.60;;
50821;SDS011;36794;51.212;6.980;2023-06-05T13:11:00;5.63;;;1.92;;
50821;SDS011;36794;51.212;6.980;2023-06-05T13:13:26;5.07;;;1.88;;
50821;SDS011;36794;51.212;6.980;2023-06-05T13:15:53;4.55;;;1.75;;
50821;SDS011;36794;51.212;6.980;2023-06-05T13:18:19;5.13;;;2.10;;
50821;SDS011;36794;51.212;6.980;2023-06-05T13:20:45;3.42;;;1.42;;
50821;SDS011;36794;51.212;6.980;2023-06-05T13:23:11;4.63;;;1.50;;
50821;SDS011;36794;51.212;6.980;2023-06-05T13:25:37;5.10;;;1.73;;
50821;SDS011;36794;51.212;6.980;2023-06-05T13:28:04;2.83;;;1.52;;
50821;SDS011;36794;51.212;6.980;2023-06-05T13:30:31;4.00;;;1.67;;
50821;SDS011;36794;51.212;6.980;2023-06-05T13:32:57;3.25;;;1.80;;
50821;SDS011;36794;51.212;6.980;2023-06-05T13:35:23;5.28;;;1.90;;
50821;SDS011;36794;51.212;6.980;2023-06-05T13:37:49;4.38;;;1.50;;
50821;SDS011;36794;51.212;6.980;2023-06-05T13:40:15;5.05;;;1.80;;
50821;SDS011;36794;51.212;6.980;2023-06-05T13:42:42;3.47;;;1.60;;
50821;SDS011;36794;51.212;6.980;2023-06-05T13:45:08;5.38;;;1.77;;
50821;SDS011;36794;51.212;6.980;2023-06-05T13:47:34;4.40;;;1.70;;
50821;SDS011;36794;51.212;6.980;2023-06-05T13:50:01;3.50;;;1.70;;
50821;SDS011;36794;51.212;6.980;2023-06-05T13:52:27;3.53;;;1.63;;
50821;SDS011;36794;51.212;6.980;2023-06-05T13:54:53;3.33;;;1.50;;
50821;SDS011;36794;51.212;6.980;2023-06-05T13:57:19;5.43;;;1.60;;
50821;SDS011;36794;51.212;6.980;2023-06-05T13:59:45;4.65;;;1.67;;
50821;SDS011;36794;51.212;6.980;2023-06-05T14:02:11;4.63;;;1.95;;
50821;SDS011;36794;51.212;6.980;2023-06-05T14:04:37;4.90;;;1.67;;
50821;SDS011;36794;51.212;6.980;2023-06-05T14:07:04;4.93;;;1.65;;
50821;SDS011;36794;51.212;6.980;2023-06-05T14:09:30;5.80;;;1.83;;
50821;SDS011;36794;51.212;6.980;2023-06-05T14:11:56;4.88;;;1.60;;
50821;SDS011;36794;51.212;6.980;2023-06-05T14:14:22;2.65;;;1.60;;
50821;SDS011;36794;51.212;6.980;2023-06-05T14:16:49;5.63;;;1.52;;
50821;SDS011;36794;51.212;6.980;2023-06-05T14:19:15;7.07;;;1.90;;
50821;SDS011;36794;51.212;6.980;2023-06-05T14:21:42;4.97;;;1.73;;
50821;SDS011;36794;51.212;6.980;2023-06-05T14:24:08;6.57;;;2.08;;
50821;SDS011;36794;51.212;6.980;2023-06-05T14:26:35;2.78;;;1.38;;
50821;SDS011;36794;51.212;6.980;2023-06-05T14:29:02;9.18;;;1.50;;
50821;SDS011;36794;51.212;6.980;2023-06-05T14:31:28;5.93;;;1.60;;
50821;SDS011;36794;51.212;6.980;2023-06-05T14:33:54;3.67;;;1.98;;
50821;SDS011;36794;51.212;6.980;2023-06-05T14:36:20;5.80;;;1.75;;
50821;SDS011;36794;51.212;6.980;2023-06-05T14:38:46;4.95;;;1.63;;
50821;SDS011;36794;51.212;6.980;2023-06-05T14:41:12;6.80;;;1.92;;
50821;SDS011;36794;51.212;6.980;2023-06-05T14:43:38;7.25;;;2.05;;
50821;SDS011;36794;51.212;6.980;2023-06-05T14:46:03;4.30;;;1.50;;
50821;SDS011;36794;51.212;6.980;2023-06-05T14:48:30;6.00;;;1.80;;
50821;SDS011;36794;51.212;6.980;2023-06-05T14:50:56;4.03;;;1.70;;
50821;SDS011;36794;51.212;6.980;2023-06-05T14:53:23;3.80;;;1.90;;
50821;SDS011;36794;51.212;6.980;2023-06-05T14:55:49;9.27;;;1.77;;
50821;SDS011;36794;51.212;6.980;2023-06-05T14:58:15;6.68;;;1.70;;
50821;SDS011;36794;51.212;6.980;2023-06-05T15:00:41;4.88;;;1.70;;
50821;SDS011;36794;51.212;6.980;2023-06-05T15:03:08;5.45;;;1.83;;